createdAt,value
2023-07-24T00:01:09.671Z,54.39
2023-07-24T00:03:36.042Z,54.43
2023-07-24T00:06:02.342Z,54.23
2023-07-24T00:08:28.650Z,54.37
2023-07-24T00:10:54.925Z,54.49
2023-07-24T00:13:21.155Z,54.52
2023-07-24T00:15:50.639Z,54.36
2023-07-24T00:18:16.901Z,54.40
2023-07-24T00:20:43.146Z,54.38
2023-07-24T00:23:09.454Z,54.57
2023-07-24T00:25:35.768Z,54.42
2023-07-24T00:28:02.023Z,54.21
2023-07-24T00:30:28.345Z,54.43
2023-07-24T00:32:54.650Z,54.74
2023-07-24T00:35:20.915Z,54.73
2023-07-24T00:37:47.170Z,54.42
2023-07-24T00:40:13.420Z,54.76
2023-07-24T00:42:39.698Z,54.53
2023-07-24T00:45:05.939Z,54.48
2023-07-24T00:47:32.318Z,54.59
2023-07-24T00:49:58.572Z,54.53
2023-07-24T00:52:24.823Z,54.76
2023-07-24T00:54:51.061Z,54.41
2023-07-24T00:57:17.340Z,54.94
2023-07-24T00:59:43.605Z,54.57
2023-07-24T01:02:09.850Z,54.54
2023-07-24T01:04:36.179Z,54.62
2023-07-24T01:07:02.455Z,54.46
2023-07-24T01:09:28.767Z,54.58
2023-07-24T01:11:55.105Z,54.42
2023-07-24T01:14:21.369Z,54.78
2023-07-24T01:16:47.681Z,54.79
2023-07-24T01:19:13.960Z,54.71
2023-07-24T01:21:40.197Z,54.59
2023-07-24T01:24:06.571Z,54.85
2023-07-24T01:26:32.966Z,54.74
2023-07-24T01:28:59.285Z,54.51
2023-07-24T01:31:25.517Z,54.56
2023-07-24T01:33:51.831Z,54.96
2023-07-24T01:36:18.066Z,54.74
2023-07-24T01:38:44.354Z,54.78
2023-07-24T01:41:10.649Z,54.59
2023-07-24T01:43:36.925Z,54.49
2023-07-24T01:46:03.320Z,54.59
2023-07-24T01:48:29.648Z,54.77
2023-07-24T01:50:55.926Z,54.69
2023-07-24T01:53:22.170Z,54.41
2023-07-24T01:55:48.447Z,54.65
2023-07-24T01:58:14.696Z,54.61
2023-07-24T02:00:40.959Z,54.95
2023-07-24T02:03:07.313Z,55.10
2023-07-24T02:05:33.660Z,54.82
2023-07-24T02:08:00.036Z,54.86
2023-07-24T02:10:32.718Z,54.60
2023-07-24T02:12:59.017Z,54.89
2023-07-24T02:15:25.332Z,54.66
2023-07-24T02:17:51.636Z,54.62
2023-07-24T02:20:17.916Z,54.69
2023-07-24T02:22:44.214Z,54.78
2023-07-24T02:25:10.553Z,54.93
2023-07-24T02:27:36.785Z,55.05
2023-07-24T02:30:03.059Z,54.71
2023-07-24T02:32:29.505Z,54.80
2023-07-24T02:34:55.907Z,54.78
2023-07-24T02:37:22.276Z,54.67
2023-07-24T02:39:48.568Z,54.81
2023-07-24T02:42:14.801Z,54.94
2023-07-24T02:44:41.046Z,54.60
2023-07-24T02:47:07.306Z,55.16
2023-07-24T02:49:33.543Z,55.01
2023-07-24T02:51:59.808Z,55.06
2023-07-24T02:54:26.091Z,54.99
2023-07-24T02:56:52.370Z,54.76
2023-07-24T02:59:18.619Z,55.30
2023-07-24T03:01:44.872Z,54.83
2023-07-24T03:04:11.153Z,54.87
2023-07-24T03:06:37.407Z,54.81
2023-07-24T03:09:03.645Z,54.81
2023-07-24T03:11:29.919Z,55.13
2023-07-24T03:13:56.229Z,54.73
2023-07-24T03:16:22.585Z,55.04
2023-07-24T03:18:48.921Z,54.86
2023-07-24T03:21:15.165Z,54.82
2023-07-24T03:23:41.403Z,55.16
2023-07-24T03:26:07.664Z,55.08
2023-07-24T03:28:33.941Z,55.23
2023-07-24T03:31:00.315Z,54.83
2023-07-24T03:33:26.640Z,54.86
2023-07-24T03:35:52.883Z,55.05
2023-07-24T03:38:19.377Z,54.92
2023-07-24T03:40:45.677Z,55.16
2023-07-24T03:43:11.924Z,54.90
2023-07-24T03:45:38.203Z,54.90
2023-07-24T03:48:04.534Z,54.76
2023-07-24T03:50:30.826Z,54.99
2023-07-24T03:52:57.092Z,54.91
2023-07-24T03:55:23.376Z,55.27
2023-07-24T03:57:49.690Z,55.23
2023-07-24T04:00:15.927Z,55.20
2023-07-24T04:02:42.186Z,55.22
2023-07-24T04:05:08.467Z,55.21
2023-07-24T04:07:34.783Z,55.15
2023-07-24T04:10:01.067Z,55.24
2023-07-24T04:12:27.363Z,55.02
2023-07-24T04:14:53.596Z,54.86
2023-07-24T04:17:19.930Z,55.02
2023-07-24T04:19:46.241Z,55.43
2023-07-24T04:22:12.528Z,55.28
2023-07-24T04:24:38.843Z,55.43
2023-07-24T04:27:05.097Z,54.99
2023-07-24T04:29:31.352Z,55.38
2023-07-24T04:31:57.600Z,55.03
2023-07-24T04:34:23.851Z,55.26
2023-07-24T04:36:50.107Z,55.53
2023-07-24T04:39:16.366Z,55.39
2023-07-24T04:41:42.626Z,55.20
2023-07-24T04:44:08.872Z,55.14
2023-07-24T04:46:35.407Z,55.28
2023-07-24T04:49:01.886Z,55.13
2023-07-24T04:51:28.119Z,55.28
2023-07-24T04:53:54.427Z,55.09
2023-07-24T04:56:20.767Z,54.99
2023-07-24T04:58:47.023Z,55.05
2023-07-24T05:01:13.255Z,55.16
2023-07-24T05:03:39.528Z,55.44
2023-07-24T05:06:05.797Z,55.29
2023-07-24T05:08:32.039Z,55.08
2023-07-24T05:10:58.322Z,55.25
2023-07-24T05:13:24.599Z,55.28
2023-07-24T05:15:50.841Z,55.33
2023-07-24T05:18:17.121Z,55.16
2023-07-24T05:20:43.354Z,55.51
2023-07-24T05:23:09.624Z,55.12
2023-07-24T05:25:35.948Z,55.56
2023-07-24T05:28:02.202Z,55.52
2023-07-24T05:30:28.474Z,55.42
2023-07-24T05:32:54.742Z,55.07
2023-07-24T05:35:21.039Z,55.16
2023-07-24T05:37:47.349Z,55.28
2023-07-24T05:40:13.695Z,55.17
2023-07-24T05:42:39.980Z,55.29
2023-07-24T05:45:16.279Z,55.50
2023-07-24T05:47:42.718Z,55.48
2023-07-24T05:50:18.998Z,55.43
2023-07-24T05:52:48.141Z,55.34
2023-07-24T05:55:24.412Z,55.31
2023-07-24T05:57:59.324Z,55.13
2023-07-24T06:00:25.589Z,55.19
2023-07-24T06:02:51.959Z,55.42
2023-07-24T06:05:18.323Z,54.98
2023-07-24T06:07:44.625Z,55.32
2023-07-24T06:10:13.925Z,55.55
2023-07-24T06:12:40.226Z,55.07
2023-07-24T06:15:06.600Z,55.22
2023-07-24T06:17:33.048Z,54.97
2023-07-24T06:19:59.298Z,55.22
2023-07-24T06:22:25.543Z,55.20
2023-07-24T06:24:51.839Z,55.05
2023-07-24T06:27:18.128Z,55.15
2023-07-24T06:29:44.371Z,55.42
2023-07-24T06:32:10.677Z,55.44
2023-07-24T06:34:37.004Z,54.83
2023-07-24T06:37:16.739Z,55.06
2023-07-24T06:39:47.329Z,55.14
2023-07-24T06:42:13.589Z,55.14
2023-07-24T06:44:39.942Z,54.77
2023-07-24T06:47:06.204Z,55.46
2023-07-24T06:49:32.441Z,55.00
2023-07-24T06:51:58.695Z,55.09
2023-07-24T06:54:24.956Z,55.00
2023-07-24T06:56:51.246Z,54.89
2023-07-24T06:59:17.518Z,55.11
2023-07-24T07:01:43.859Z,55.47
2023-07-24T07:04:10.130Z,55.23
2023-07-24T07:06:38.313Z,55.33
2023-07-24T07:09:05.515Z,55.22
2023-07-24T07:11:31.778Z,55.27
2023-07-24T07:13:58.059Z,54.99
2023-07-24T07:16:24.328Z,55.13
2023-07-24T07:18:50.594Z,55.16
2023-07-24T07:21:16.853Z,55.08
2023-07-24T07:23:44.379Z,54.95
2023-07-24T07:26:12.616Z,55.50
2023-07-24T07:28:38.870Z,55.26
2023-07-24T07:31:05.220Z,55.10
2023-07-24T07:33:31.483Z,55.11
2023-07-24T07:35:59.767Z,55.37
2023-07-24T07:38:26.210Z,55.07
2023-07-24T07:40:52.495Z,55.11
2023-07-24T07:43:18.755Z,55.25
2023-07-24T07:45:44.998Z,55.43
2023-07-24T07:48:11.250Z,55.42
2023-07-24T07:50:37.611Z,55.22
2023-07-24T07:53:04.080Z,55.31
2023-07-24T07:55:30.408Z,55.31
2023-07-24T07:57:56.679Z,55.50
2023-07-24T08:00:22.938Z,55.31
2023-07-24T08:02:49.212Z,55.55
2023-07-24T08:05:20.213Z,55.55
2023-07-24T08:07:47.487Z,55.62
2023-07-24T08:10:13.772Z,55.54
2023-07-24T08:12:40.016Z,55.43
2023-07-24T08:15:06.296Z,55.61
2023-07-24T08:17:32.629Z,55.76
2023-07-24T08:19:58.926Z,55.68
2023-07-24T08:22:25.253Z,55.54
2023-07-24T08:24:51.676Z,55.55
2023-07-24T08:27:18.144Z,55.55
2023-07-24T08:29:44.414Z,55.74
2023-07-24T08:32:10.788Z,55.83
2023-07-24T08:34:37.092Z,55.85
2023-07-24T08:37:03.336Z,55.88
2023-07-24T08:39:29.699Z,55.93
2023-07-24T08:41:55.972Z,55.90
2023-07-24T08:44:22.237Z,56.17
2023-07-24T08:46:48.563Z,55.69
2023-07-24T08:49:14.884Z,56.02
2023-07-24T08:51:41.192Z,55.79
2023-07-24T08:54:07.449Z,56.04
2023-07-24T08:56:33.713Z,56.03
2023-07-24T08:58:59.952Z,56.00
2023-07-24T09:01:26.303Z,55.70
2023-07-24T09:03:53.310Z,56.23
2023-07-24T09:06:19.737Z,55.90
2023-07-24T09:08:46.006Z,56.06
2023-07-24T09:11:12.347Z,56.10
2023-07-24T09:13:38.592Z,56.21
2023-07-24T09:16:04.912Z,55.94
2023-07-24T09:18:31.236Z,56.06
2023-07-24T09:20:57.489Z,56.48
2023-07-24T09:23:23.771Z,56.46
2023-07-24T09:25:50.023Z,56.36
2023-07-24T09:28:16.304Z,55.92
2023-07-24T09:30:42.635Z,56.00
2023-07-24T09:33:08.956Z,56.33
2023-07-24T09:35:35.440Z,55.98
2023-07-24T09:38:01.981Z,55.79
2023-07-24T09:40:28.249Z,56.22
2023-07-24T09:45:27.350Z,56.27
2023-07-24T09:47:58.676Z,56.31
2023-07-24T09:50:28.009Z,55.96
2023-07-24T09:52:54.261Z,56.29
2023-07-24T09:55:20.509Z,56.07
2023-07-24T09:57:46.802Z,56.50
2023-07-24T10:00:13.055Z,56.32
2023-07-24T10:02:39.330Z,56.52
2023-07-24T10:05:05.597Z,56.51
2023-07-24T10:07:31.906Z,56.44
2023-07-24T10:09:58.156Z,56.12
2023-07-24T10:12:24.448Z,56.15
2023-07-24T10:14:50.741Z,56.00
2023-07-24T10:17:18.904Z,56.09
2023-07-24T10:19:46.841Z,56.17
2023-07-24T10:22:13.087Z,56.06
2023-07-24T10:24:42.258Z,56.55
2023-07-24T10:27:09.174Z,56.39
2023-07-24T10:29:35.433Z,56.30
2023-07-24T10:32:01.843Z,56.23
2023-07-24T10:34:28.264Z,56.03
2023-07-24T10:36:54.496Z,56.25
2023-07-24T10:39:20.747Z,56.22
2023-07-24T10:41:47.015Z,56.42
2023-07-24T10:44:13.335Z,56.33
2023-07-24T10:46:39.573Z,56.44
2023-07-24T10:49:05.857Z,56.59
2023-07-24T10:51:32.314Z,56.15
2023-07-24T10:53:58.911Z,56.01
2023-07-24T10:56:25.192Z,56.43
2023-07-24T10:58:51.435Z,56.43
2023-07-24T11:01:17.733Z,56.14
2023-07-24T11:03:43.981Z,56.28
2023-07-24T11:06:10.270Z,56.27
2023-07-24T11:08:37.235Z,56.09
2023-07-24T11:11:03.487Z,56.76
2023-07-24T11:13:29.794Z,56.63
2023-07-24T11:15:56.089Z,56.56
2023-07-24T11:18:22.569Z,56.16
2023-07-24T11:20:48.859Z,56.40
2023-07-24T11:23:15.151Z,56.68
2023-07-24T11:25:41.416Z,56.51
2023-07-24T11:28:07.668Z,56.69
2023-07-24T11:30:33.943Z,56.63
2023-07-24T11:33:00.238Z,56.57
2023-07-24T11:35:26.557Z,55.99
2023-07-24T11:37:52.826Z,56.26
2023-07-24T11:40:19.077Z,56.25
2023-07-24T11:42:45.398Z,56.09
2023-07-24T11:45:11.644Z,56.26
2023-07-24T11:47:37.934Z,56.27
2023-07-24T11:50:04.225Z,56.13
2023-07-24T11:52:31.564Z,56.26
2023-07-24T11:54:58.319Z,56.23
2023-07-24T11:57:24.555Z,56.08
2023-07-24T11:59:50.847Z,56.35
2023-07-24T12:02:17.178Z,56.02
2023-07-24T12:04:43.455Z,55.98
2023-07-24T12:07:09.703Z,56.50
2023-07-24T12:12:04.458Z,56.35
2023-07-24T12:14:30.740Z,56.53
2023-07-24T12:16:56.985Z,56.50
2023-07-24T12:19:23.234Z,56.21
2023-07-24T12:21:49.583Z,56.12
2023-07-24T12:24:15.868Z,56.52
2023-07-24T12:26:42.188Z,56.44
2023-07-24T12:29:08.474Z,56.23
2023-07-24T12:31:35.187Z,56.23
2023-07-24T12:34:09.392Z,56.31
2023-07-24T12:36:35.650Z,56.08
2023-07-24T12:39:01.943Z,56.59
2023-07-24T12:41:28.622Z,56.62
2023-07-24T12:43:55.219Z,56.59
2023-07-24T12:46:22.858Z,56.50
2023-07-24T12:48:49.106Z,56.21
2023-07-24T12:51:15.382Z,56.47
2023-07-24T12:53:43.620Z,56.35
2023-07-24T12:56:12.472Z,56.06
2023-07-24T12:58:38.755Z,56.35
2023-07-24T13:01:05.174Z,56.67
2023-07-24T13:03:31.529Z,56.41
2023-07-24T13:05:57.882Z,56.35
2023-07-24T13:08:29.591Z,56.70
2023-07-24T13:10:55.923Z,56.66
2023-07-24T13:13:22.170Z,56.74
2023-07-24T13:15:48.452Z,56.42
2023-07-24T13:18:27.083Z,56.35
2023-07-24T13:20:54.967Z,56.59
2023-07-24T13:23:26.284Z,56.69
2023-07-24T13:25:52.558Z,57.01
2023-07-24T13:28:18.837Z,56.48
2023-07-24T13:30:45.144Z,56.47
2023-07-24T13:33:11.431Z,56.93
2023-07-24T13:35:37.754Z,56.87
2023-07-24T13:38:04.019Z,56.91
2023-07-24T13:40:30.440Z,56.56
2023-07-24T13:42:56.752Z,56.46
2023-07-24T13:45:23.027Z,56.54
2023-07-24T13:47:49.314Z,56.48
2023-07-24T13:50:15.590Z,56.43
2023-07-24T13:52:41.842Z,56.86
2023-07-24T13:55:08.113Z,56.90
2023-07-24T13:57:34.465Z,56.68
2023-07-24T14:00:00.830Z,56.70
2023-07-24T14:02:27.130Z,56.50
2023-07-24T14:04:53.502Z,56.95
2023-07-24T14:07:21.733Z,56.99
2023-07-24T14:09:47.968Z,57.06
2023-07-24T14:12:14.222Z,57.11
2023-07-24T14:14:40.507Z,56.77
2023-07-24T14:17:06.753Z,57.07
2023-07-24T14:19:33.198Z,56.83
2023-07-24T14:21:59.502Z,57.23
2023-07-24T14:24:25.792Z,56.88
2023-07-24T14:26:56.628Z,56.74
2023-07-24T14:29:22.962Z,56.92
2023-07-24T14:31:49.994Z,56.99
2023-07-24T14:34:16.338Z,56.96
2023-07-24T14:36:42.631Z,56.89
2023-07-24T14:39:08.889Z,57.11
2023-07-24T14:41:35.180Z,57.06
2023-07-24T14:44:01.422Z,57.08
2023-07-24T14:46:27.746Z,56.80
2023-07-24T14:48:54.023Z,56.74
2023-07-24T14:51:20.276Z,57.17
2023-07-24T14:53:46.520Z,56.79
2023-07-24T14:56:12.771Z,56.98
2023-07-24T14:58:41.775Z,56.79
2023-07-24T15:01:08.057Z,57.04
2023-07-24T15:03:34.374Z,56.83
2023-07-24T15:06:00.634Z,56.62
2023-07-24T15:08:26.882Z,57.05
2023-07-24T15:10:53.132Z,56.79
2023-07-24T15:13:19.375Z,56.67
2023-07-24T15:15:45.666Z,57.00
2023-07-24T15:18:12.048Z,56.79
2023-07-24T15:20:38.347Z,57.03
2023-07-24T15:23:04.613Z,56.67
2023-07-24T15:25:34.121Z,56.49
2023-07-24T15:28:00.372Z,56.95
2023-07-24T15:30:26.748Z,57.01
2023-07-24T15:32:53.075Z,56.93
2023-07-24T15:35:22.725Z,56.83
2023-07-24T15:37:48.985Z,56.91
2023-07-24T15:40:15.229Z,57.00
2023-07-24T15:42:41.533Z,56.95
2023-07-24T15:45:07.926Z,56.78
2023-07-24T15:47:34.253Z,57.04
2023-07-24T15:50:00.546Z,56.90
2023-07-24T15:52:26.797Z,56.82
2023-07-24T15:54:53.163Z,56.93
2023-07-24T15:57:19.429Z,56.84
2023-07-24T15:59:45.730Z,56.60
2023-07-24T16:02:12.085Z,56.53
2023-07-24T16:04:38.344Z,56.83
2023-07-24T16:07:04.599Z,56.68
2023-07-24T16:09:30.862Z,57.03
2023-07-24T16:11:57.130Z,56.99
2023-07-24T16:14:23.426Z,57.09
2023-07-24T16:16:49.697Z,57.11
2023-07-24T16:19:15.965Z,57.12
2023-07-24T16:21:42.258Z,57.20
2023-07-24T16:24:08.511Z,56.73
2023-07-24T16:26:34.756Z,57.27
2023-07-24T16:29:01.016Z,57.18
2023-07-24T16:31:31.667Z,57.11
2023-07-24T16:34:01.699Z,56.82
2023-07-24T16:36:28.038Z,57.41
2023-07-24T16:38:54.418Z,56.94
2023-07-24T16:41:20.681Z,57.27
2023-07-24T16:43:46.947Z,57.12
2023-07-24T16:48:42.535Z,57.08
2023-07-24T16:51:08.856Z,57.22
2023-07-24T16:53:35.102Z,57.20
2023-07-24T16:56:01.353Z,57.55
2023-07-24T16:58:27.614Z,57.06
2023-07-24T17:00:53.893Z,57.38
2023-07-24T17:03:20.250Z,57.27
2023-07-24T17:05:46.544Z,57.58
2023-07-24T17:08:12.788Z,57.22
2023-07-24T17:10:39.039Z,57.38
2023-07-24T17:13:05.288Z,57.28
2023-07-24T17:15:31.576Z,57.15
2023-07-24T17:17:57.893Z,57.56
2023-07-24T17:20:24.162Z,57.70
2023-07-24T17:22:50.407Z,57.65
2023-07-24T17:25:18.044Z,57.61
2023-07-24T17:27:45.734Z,57.16
2023-07-24T17:30:12.009Z,57.38
2023-07-24T17:32:38.319Z,57.37
2023-07-24T17:35:04.636Z,57.68
2023-07-24T17:37:37.802Z,57.78
2023-07-24T17:40:05.094Z,57.73
2023-07-24T17:42:31.343Z,57.41
2023-07-24T17:44:57.609Z,57.67
2023-07-24T17:47:23.902Z,57.53
2023-07-24T17:50:04.854Z,57.73
2023-07-24T17:52:33.222Z,57.53
2023-07-24T17:54:59.467Z,57.84
2023-07-24T17:57:26.002Z,57.54
2023-07-24T17:59:52.262Z,57.85
2023-07-24T18:02:18.520Z,57.70
2023-07-24T18:04:52.270Z,57.62
2023-07-24T18:07:18.524Z,57.87
2023-07-24T18:09:44.827Z,57.53
2023-07-24T18:12:11.637Z,57.56
2023-07-24T18:14:37.876Z,57.78
2023-07-24T18:17:04.114Z,57.85
2023-07-24T18:19:30.344Z,57.41
2023-07-24T18:21:56.636Z,57.49
2023-07-24T18:24:22.978Z,57.64
2023-07-24T18:26:49.303Z,57.88
2023-07-24T18:29:15.667Z,57.52
2023-07-24T18:31:42.096Z,57.83
2023-07-24T18:34:08.409Z,57.88
2023-07-24T18:36:34.641Z,57.76
2023-07-24T18:39:00.909Z,57.88
2023-07-24T18:41:27.342Z,57.91
2023-07-24T18:43:53.616Z,57.52
2023-07-24T18:46:20.052Z,57.71
2023-07-24T18:48:46.375Z,57.78
2023-07-24T18:51:12.637Z,57.76
2023-07-24T18:53:38.923Z,57.53
2023-07-24T18:56:05.159Z,58.13
2023-07-24T18:58:31.417Z,57.56
2023-07-24T19:00:57.676Z,58.02
2023-07-24T19:03:23.989Z,57.95
2023-07-24T19:05:50.316Z,58.42
2023-07-24T19:08:16.670Z,58.08
2023-07-24T19:10:42.943Z,58.26
2023-07-24T19:13:09.185Z,58.66
2023-07-24T19:15:35.446Z,58.54
2023-07-24T19:18:01.771Z,58.91
2023-07-24T19:20:29.272Z,58.74
2023-07-24T19:22:55.549Z,58.55
2023-07-24T19:25:21.804Z,58.71
2023-07-24T19:27:48.044Z,58.71
2023-07-24T19:30:14.311Z,58.77
2023-07-24T19:32:42.730Z,58.55
2023-07-24T19:35:10.914Z,58.99
2023-07-24T19:37:37.155Z,58.91
2023-07-24T19:40:03.431Z,58.80
2023-07-24T19:42:29.667Z,58.81
2023-07-24T19:44:55.940Z,59.26
2023-07-24T19:47:22.219Z,58.99
2023-07-24T19:49:48.512Z,59.15
2023-07-24T19:52:14.755Z,59.08
2023-07-24T19:54:41.005Z,58.78
2023-07-24T19:57:07.282Z,58.82
2023-07-24T19:59:33.542Z,58.93
2023-07-24T20:01:59.877Z,59.26
2023-07-24T20:04:26.165Z,58.96
2023-07-24T20:06:52.421Z,59.10
2023-07-24T20:09:18.685Z,59.19
2023-07-24T20:11:47.328Z,58.87
2023-07-24T20:14:15.255Z,59.06
2023-07-24T20:16:41.534Z,59.35
2023-07-24T20:19:08.092Z,59.26
2023-07-24T20:21:34.347Z,59.31
2023-07-24T20:24:00.627Z,59.15
2023-07-24T20:26:26.928Z,59.02
2023-07-24T20:28:53.397Z,59.08
2023-07-24T20:31:19.756Z,59.12
2023-07-24T20:33:48.117Z,59.24
2023-07-24T20:36:14.405Z,59.16
2023-07-24T20:38:40.690Z,59.28
2023-07-24T20:41:06.946Z,59.45
2023-07-24T20:43:33.205Z,59.00
2023-07-24T20:45:59.504Z,59.57
2023-07-24T20:48:25.991Z,59.33
2023-07-24T20:50:52.314Z,59.28
2023-07-24T20:53:18.608Z,59.42
2023-07-24T20:55:44.874Z,59.48
2023-07-24T20:58:11.127Z,59.36
2023-07-24T21:00:37.380Z,59.36
2023-07-24T21:03:03.833Z,59.65
2023-07-24T21:05:30.191Z,59.65
2023-07-24T21:07:56.536Z,59.51
2023-07-24T21:10:22.887Z,59.85
2023-07-24T21:12:50.132Z,59.43
2023-07-24T21:15:16.447Z,59.59
2023-07-24T21:17:42.852Z,59.90
2023-07-24T21:20:11.379Z,59.41
2023-07-24T21:22:37.636Z,59.92
2023-07-24T21:25:03.878Z,59.92
2023-07-24T21:27:30.158Z,60.18
2023-07-24T21:29:56.451Z,59.63
2023-07-24T21:32:22.789Z,59.69
2023-07-24T21:34:49.086Z,60.33
2023-07-24T21:37:15.344Z,60.06
2023-07-24T21:39:41.599Z,59.48
2023-07-24T21:42:07.971Z,59.83
2023-07-24T21:44:34.241Z,60.00
2023-07-24T21:47:00.518Z,60.04
2023-07-24T21:49:26.798Z,59.96
2023-07-24T21:51:53.052Z,59.74
2023-07-24T21:54:19.300Z,59.83
2023-07-24T21:56:45.535Z,60.23
2023-07-24T21:59:11.792Z,59.86
2023-07-24T22:01:38.158Z,60.06
2023-07-24T22:04:05.056Z,60.30
2023-07-24T22:06:31.424Z,59.97
2023-07-24T22:08:57.745Z,60.26
2023-07-24T22:11:24.059Z,60.05
2023-07-24T22:13:50.308Z,60.29
2023-07-24T22:16:16.610Z,60.05
2023-07-24T22:18:42.907Z,60.24
2023-07-24T22:21:09.202Z,60.43
2023-07-24T22:23:35.447Z,60.10
2023-07-24T22:26:01.676Z,60.54
2023-07-24T22:28:27.930Z,60.31
2023-07-24T22:30:54.210Z,60.24
2023-07-24T22:33:20.484Z,60.39
2023-07-24T22:35:46.786Z,60.05
2023-07-24T22:38:13.049Z,59.89
2023-07-24T22:40:39.305Z,60.13
2023-07-24T22:43:05.627Z,60.62
2023-07-24T22:45:31.959Z,60.48
2023-07-24T22:47:58.395Z,60.00
2023-07-24T22:50:24.736Z,59.99
2023-07-24T22:52:50.982Z,59.91
2023-07-24T22:55:17.294Z,60.02
2023-07-24T22:57:43.646Z,60.45
2023-07-24T23:00:09.918Z,60.54
2023-07-24T23:02:36.214Z,60.19
2023-07-24T23:05:02.493Z,60.58
2023-07-24T23:07:28.742Z,60.56
2023-07-24T23:09:54.991Z,60.33
2023-07-24T23:12:21.229Z,60.57
2023-07-24T23:14:47.490Z,60.54
2023-07-24T23:17:13.737Z,60.29
2023-07-24T23:19:40.019Z,60.50
2023-07-24T23:22:06.302Z,60.51
2023-07-24T23:24:32.600Z,60.54
2023-07-24T23:26:58.873Z,60.83
2023-07-24T23:29:25.115Z,60.64
2023-07-24T23:31:51.355Z,60.76
2023-07-24T23:34:17.610Z,60.69
2023-07-24T23:36:46.634Z,60.62
2023-07-24T23:39:12.935Z,60.64
2023-07-24T23:41:39.212Z,60.66
2023-07-24T23:44:05.463Z,60.58
2023-07-24T23:46:31.955Z,60.47
2023-07-24T23:48:58.324Z,60.09
2023-07-24T23:51:24.566Z,60.63
2023-07-24T23:53:52.919Z,60.43
2023-07-24T23:56:19.170Z,60.39
2023-07-24T23:58:45.412Z,60.47
